createdAt,value
2023-05-11T00:01:53.153Z,12.44
2023-05-11T00:04:26.659Z,12.42
2023-05-11T00:07:00.647Z,12.42
2023-05-11T00:09:35.571Z,12.40
2023-05-11T00:12:10.028Z,12.35
2023-05-11T00:14:47.164Z,12.26
2023-05-11T00:17:23.883Z,12.34
2023-05-11T00:19:59.750Z,12.34
2023-05-11T00:22:39.866Z,12.30
2023-05-11T00:25:20.979Z,12.25
2023-05-11T00:27:57.909Z,12.20
2023-05-11T00:30:31.789Z,12.17
2023-05-11T00:33:07.354Z,12.13
2023-05-11T00:35:41.342Z,12.11
2023-05-11T00:38:17.714Z,12.10
2023-05-11T00:40:55.545Z,12.11
2023-05-11T00:43:36.143Z,12.10
2023-05-11T00:46:13.550Z,12.11
2023-05-11T00:48:50.609Z,12.11
2023-05-11T00:51:25.274Z,12.09
2023-05-11T00:53:59.632Z,12.03
2023-05-11T00:56:34.312Z,12.00
2023-05-11T00:59:11.546Z,11.99
2023-05-11T01:01:52.363Z,11.97
2023-05-11T01:04:38.708Z,11.96
2023-05-11T01:07:20.052Z,11.96
2023-05-11T01:13:44.662Z,11.90
2023-05-11T01:16:39.356Z,11.81
2023-05-11T01:20:30.515Z,11.79
2023-05-11T01:23:47.572Z,11.73
2023-05-11T01:30:37.029Z,11.76
2023-05-11T01:33:37.426Z,11.61
2023-05-11T01:36:32.401Z,11.57
2023-05-11T01:40:00.812Z,11.60
2023-05-11T01:42:44.815Z,11.60
2023-05-11T01:45:26.734Z,11.61
2023-05-11T01:48:06.688Z,11.61
2023-05-11T01:50:45.208Z,11.60
2023-05-11T01:53:26.623Z,11.57
2023-05-11T01:56:09.247Z,11.55
2023-05-11T02:01:39.272Z,11.69
2023-05-11T02:04:22.047Z,11.56
2023-05-11T02:07:08.965Z,11.55
2023-05-11T02:09:41.040Z,11.55
2023-05-11T02:12:22.045Z,11.55
2023-05-11T02:15:17.088Z,11.53
2023-05-11T02:17:54.387Z,11.57
2023-05-11T02:20:34.715Z,11.60
2023-05-11T02:23:28.254Z,11.65
2023-05-11T02:26:03.312Z,11.71
2023-05-11T02:28:44.065Z,11.76
2023-05-11T02:31:30.843Z,11.79
2023-05-11T02:34:24.900Z,11.83
2023-05-11T02:37:21.056Z,11.87
2023-05-11T02:40:40.958Z,11.93
2023-05-11T02:43:37.832Z,11.99
2023-05-11T02:46:18.215Z,12.05
2023-05-11T02:49:03.980Z,12.12
2023-05-11T02:51:50.034Z,12.14
2023-05-11T02:54:33.393Z,12.13
2023-05-11T02:57:14.046Z,12.11
2023-05-11T03:01:16.273Z,12.11
2023-05-11T03:03:50.168Z,12.13
2023-05-11T03:06:23.832Z,12.20
2023-05-11T03:08:57.529Z,12.25
2023-05-11T03:11:32.295Z,12.32
2023-05-11T03:14:06.864Z,12.30
2023-05-11T03:16:41.576Z,12.26
2023-05-11T03:19:16.318Z,12.25
2023-05-11T03:21:51.132Z,12.30
2023-05-11T03:24:25.178Z,12.35
2023-05-11T03:27:00.716Z,12.41
2023-05-11T03:29:37.340Z,12.42
2023-05-11T03:32:12.246Z,12.47
2023-05-11T03:34:46.123Z,12.58
2023-05-11T03:37:21.780Z,12.66
2023-05-11T03:39:58.286Z,12.80
2023-05-11T03:42:32.444Z,12.94
2023-05-11T03:45:09.673Z,13.04
2023-05-11T03:47:44.695Z,13.11
2023-05-11T03:50:19.103Z,13.15
2023-05-11T03:52:53.789Z,13.25
2023-05-11T03:55:27.899Z,13.37
2023-05-11T03:58:03.613Z,13.46
2023-05-11T04:00:37.612Z,13.49
2023-05-11T04:03:12.646Z,13.55
2023-05-11T04:05:46.290Z,13.59
2023-05-11T04:08:19.805Z,13.61
2023-05-11T04:10:53.154Z,13.63
2023-05-11T04:13:27.437Z,13.63
2023-05-11T04:16:01.188Z,13.68
2023-05-11T04:18:36.686Z,13.74
2023-05-11T04:21:11.516Z,13.80
2023-05-11T04:23:44.719Z,13.86
2023-05-11T04:26:18.061Z,13.92
2023-05-11T04:28:51.264Z,14.00
2023-05-11T04:31:30.046Z,14.10
2023-05-11T04:34:03.770Z,14.20
2023-05-11T04:36:42.225Z,14.34
2023-05-11T04:39:14.690Z,14.44
2023-05-11T04:41:48.489Z,14.58
2023-05-11T04:44:21.942Z,14.52
2023-05-11T04:47:00.892Z,14.54
2023-05-11T04:49:34.178Z,14.62
2023-05-11T04:54:47.866Z,15.06
2023-05-11T04:57:22.256Z,15.17
2023-05-11T05:00:06.046Z,15.43
2023-05-11T05:02:45.542Z,15.71
2023-05-11T05:08:18.831Z,16.09
2023-05-11T05:10:52.690Z,16.19
2023-05-11T05:13:34.468Z,16.50
2023-05-11T05:16:08.213Z,16.78
2023-05-11T05:18:41.730Z,17.00
2023-05-11T05:21:16.754Z,17.16
2023-05-11T05:23:51.325Z,17.37
2023-05-11T05:26:24.736Z,17.56
2023-05-11T05:28:58.626Z,17.73
2023-05-11T05:31:36.288Z,17.99
2023-05-11T05:34:10.063Z,18.33
2023-05-11T05:36:44.268Z,18.55
2023-05-11T05:39:17.508Z,18.73
2023-05-11T05:41:51.530Z,18.75
2023-05-11T05:44:25.949Z,18.75
2023-05-11T05:47:00.343Z,18.80
2023-05-11T05:49:36.397Z,18.89
2023-05-11T05:52:12.669Z,18.99
2023-05-11T05:54:46.738Z,18.96
2023-05-11T05:57:20.075Z,18.94
2023-05-11T05:59:54.146Z,18.97
2023-05-11T06:02:28.208Z,19.05
2023-05-11T06:05:01.719Z,19.31
2023-05-11T06:07:36.953Z,19.53
2023-05-11T06:10:11.364Z,19.69
2023-05-11T06:12:44.713Z,19.87
2023-05-11T06:15:18.358Z,20.06
2023-05-11T06:17:55.594Z,20.39
2023-05-11T06:20:28.894Z,20.69
2023-05-11T06:23:05.213Z,20.93
2023-05-11T06:25:39.747Z,21.34
2023-05-11T06:28:15.076Z,21.50
2023-05-11T06:30:52.143Z,21.52
2023-05-11T06:33:26.317Z,21.36
2023-05-11T06:36:00.252Z,21.21
2023-05-11T06:38:34.537Z,21.18
2023-05-11T06:41:10.087Z,21.20
2023-05-11T06:43:43.476Z,21.42
2023-05-11T06:46:27.785Z,21.52
2023-05-11T06:49:01.511Z,21.72
2023-05-11T06:51:35.641Z,21.97
2023-05-11T06:54:09.428Z,22.27
2023-05-11T06:56:43.139Z,22.97
2023-05-11T06:59:17.575Z,24.88
2023-05-11T07:01:51.071Z,25.62
2023-05-11T07:04:24.686Z,25.79
2023-05-11T07:06:58.263Z,25.23
2023-05-11T07:09:31.697Z,24.70
2023-05-11T07:12:05.072Z,24.08
2023-05-11T07:14:57.413Z,24.02
2023-05-11T07:17:34.480Z,23.73
2023-05-11T07:20:10.317Z,24.35
2023-05-11T07:22:48.550Z,25.84
2023-05-11T07:25:22.105Z,26.51
2023-05-11T07:27:56.238Z,27.11
2023-05-11T07:30:33.291Z,28.33
2023-05-11T07:33:08.317Z,29.00
2023-05-11T07:35:41.724Z,29.73
2023-05-11T07:38:15.231Z,30.20
2023-05-11T07:40:48.640Z,30.29
2023-05-11T07:43:22.259Z,30.01
2023-05-11T07:45:56.000Z,29.30
2023-05-11T07:48:29.361Z,28.80
2023-05-11T07:51:03.334Z,29.07
2023-05-11T07:53:39.101Z,28.41
2023-05-11T07:56:12.455Z,27.25
2023-05-11T07:58:46.435Z,26.23
2023-05-11T08:01:19.839Z,26.13
2023-05-11T08:03:53.334Z,25.75
2023-05-11T08:06:26.757Z,25.38
2023-05-11T08:08:59.992Z,25.96
2023-05-11T08:11:33.455Z,25.67
2023-05-11T08:14:06.905Z,24.87
2023-05-11T08:16:40.733Z,24.09
2023-05-11T08:19:14.198Z,23.41
2023-05-11T08:21:47.469Z,23.00
2023-05-11T08:24:20.797Z,23.62
2023-05-11T08:26:54.105Z,26.77
2023-05-11T08:29:30.094Z,30.42
2023-05-11T08:32:03.688Z,34.09
2023-05-11T08:34:37.417Z,36.77
2023-05-11T08:37:13.107Z,38.24
2023-05-11T08:39:47.738Z,40.02
2023-05-11T08:42:21.974Z,40.63
2023-05-11T08:44:59.538Z,38.65
2023-05-11T08:47:35.056Z,36.27
2023-05-11T08:50:09.775Z,33.59
2023-05-11T08:52:45.272Z,30.79
2023-05-11T08:55:19.236Z,28.84
2023-05-11T08:57:54.685Z,27.83
2023-05-11T09:00:29.388Z,27.34
2023-05-11T09:03:03.788Z,27.26
2023-05-11T09:05:38.883Z,27.41
2023-05-11T09:08:14.637Z,26.96
2023-05-11T09:10:48.070Z,26.61
2023-05-11T09:13:21.586Z,26.13
2023-05-11T09:15:55.177Z,25.40
2023-05-11T09:18:29.247Z,24.79
2023-05-11T09:21:03.638Z,24.45
2023-05-11T09:23:36.976Z,25.48
2023-05-11T09:26:17.183Z,27.68
2023-05-11T09:29:03.018Z,28.84
2023-05-11T09:31:40.951Z,29.81
2023-05-11T09:34:19.739Z,31.50
2023-05-11T09:36:54.224Z,33.26
2023-05-11T09:39:42.045Z,36.15
2023-05-11T09:42:17.554Z,35.36
2023-05-11T09:44:51.005Z,34.34
2023-05-11T09:47:24.469Z,31.18
2023-05-11T09:49:57.671Z,29.34
2023-05-11T09:52:31.840Z,28.15
2023-05-11T09:55:08.709Z,26.88
2023-05-11T09:57:42.151Z,25.82
2023-05-11T10:00:18.908Z,25.65
2023-05-11T10:03:03.805Z,27.70
2023-05-11T10:05:39.013Z,30.54
2023-05-11T10:08:12.487Z,32.98
2023-05-11T10:10:46.546Z,34.61
2023-05-11T10:13:20.046Z,35.26
2023-05-11T10:15:55.914Z,35.02
2023-05-11T10:18:29.716Z,33.69
2023-05-11T10:21:03.686Z,32.16
2023-05-11T10:23:37.354Z,32.91
2023-05-11T10:26:12.612Z,34.76
2023-05-11T10:28:45.855Z,36.93
2023-05-11T10:31:21.222Z,38.22
2023-05-11T10:33:55.168Z,38.23
2023-05-11T10:36:29.342Z,38.55
2023-05-11T10:39:09.179Z,39.92
2023-05-11T10:41:54.589Z,40.74
2023-05-11T10:44:54.933Z,38.68
2023-05-11T10:47:51.610Z,35.63
2023-05-11T10:50:36.786Z,33.30
2023-05-11T10:53:19.858Z,31.47
2023-05-11T10:56:17.456Z,30.04
2023-05-11T10:59:16.530Z,29.03
2023-05-11T11:01:54.968Z,27.46
2023-05-11T11:04:44.119Z,25.02
2023-05-11T11:07:18.771Z,24.66
2023-05-11T11:10:00.519Z,24.79
2023-05-11T11:12:35.746Z,24.48
2023-05-11T11:15:13.780Z,24.50
2023-05-11T11:17:47.540Z,24.61
2023-05-11T11:20:45.093Z,25.32
2023-05-11T11:23:45.798Z,26.64
2023-05-11T11:26:21.886Z,27.15
2023-05-11T11:29:13.068Z,26.79
2023-05-11T11:31:46.336Z,26.02
2023-05-11T11:34:40.106Z,25.04
2023-05-11T11:37:13.724Z,24.20
2023-05-11T11:40:14.009Z,23.37
2023-05-11T11:42:42.144Z,22.54
2023-05-11T11:45:33.014Z,21.57
2023-05-11T11:48:14.026Z,21.17
2023-05-11T11:50:49.190Z,20.89
2023-05-11T11:54:15.190Z,20.63
2023-05-11T11:56:48.704Z,20.18
2023-05-11T11:59:24.940Z,20.87
2023-05-11T12:02:00.684Z,21.54
2023-05-11T12:05:07.944Z,21.56
2023-05-11T12:07:44.970Z,20.67
2023-05-11T12:10:19.383Z,19.42
2023-05-11T12:12:59.927Z,19.10
2023-05-11T12:15:33.279Z,18.97
2023-05-11T12:18:07.129Z,19.01
2023-05-11T12:20:40.657Z,19.30
2023-05-11T12:23:15.018Z,19.59
2023-05-11T12:25:49.752Z,19.61
2023-05-11T12:28:23.305Z,19.44
2023-05-11T12:31:00.602Z,19.47
2023-05-11T12:33:33.871Z,19.53
2023-05-11T12:36:11.452Z,19.75
2023-05-11T12:38:47.940Z,20.52
2023-05-11T12:41:23.379Z,22.40
2023-05-11T12:43:57.147Z,24.67
2023-05-11T12:46:30.509Z,26.88
2023-05-11T12:49:09.610Z,27.51
2023-05-11T12:51:50.601Z,26.74
2023-05-11T12:54:30.932Z,25.86
2023-05-11T12:57:08.464Z,25.39
2023-05-11T12:59:40.761Z,24.63
2023-05-11T13:02:19.641Z,26.53
2023-05-11T13:04:52.718Z,26.80
2023-05-11T13:07:31.418Z,26.85
2023-05-11T13:10:04.634Z,27.08
2023-05-11T13:12:38.244Z,27.24
2023-05-11T13:15:13.726Z,28.38
2023-05-11T13:17:47.591Z,28.81
2023-05-11T13:20:26.849Z,28.02
2023-05-11T13:23:10.591Z,27.55
2023-05-11T13:25:55.099Z,27.44
2023-05-11T13:28:28.676Z,27.72
2023-05-11T13:31:04.959Z,27.53
2023-05-11T13:33:40.585Z,26.55
2023-05-11T13:36:15.236Z,25.68
2023-05-11T13:38:51.643Z,25.32
2023-05-11T13:41:24.765Z,25.25
2023-05-11T13:43:59.075Z,25.52
2023-05-11T13:46:32.349Z,25.69
2023-05-11T13:49:11.816Z,26.29
2023-05-11T13:51:45.163Z,26.90
2023-05-11T13:54:18.485Z,26.76
2023-05-11T13:56:51.902Z,27.08
2023-05-11T13:59:25.304Z,26.71
2023-05-11T14:01:58.798Z,25.97
2023-05-11T14:04:32.549Z,25.26
2023-05-11T14:07:06.620Z,24.96
2023-05-11T14:09:43.303Z,25.19
2023-05-11T14:12:15.588Z,25.09
2023-05-11T14:14:48.779Z,24.00
2023-05-11T14:17:22.070Z,23.49
2023-05-11T14:19:55.508Z,23.41
2023-05-11T14:22:33.783Z,23.89
2023-05-11T14:25:13.236Z,24.71
2023-05-11T14:27:46.799Z,25.10
2023-05-11T14:30:20.270Z,25.30
2023-05-11T14:32:58.665Z,25.65
2023-05-11T14:35:31.902Z,25.35
2023-05-11T14:38:05.718Z,25.38
2023-05-11T14:40:38.979Z,25.84
2023-05-11T14:43:12.903Z,26.19
2023-05-11T14:45:46.312Z,26.42
2023-05-11T14:48:21.313Z,26.50
2023-05-11T14:50:55.053Z,26.43
2023-05-11T14:53:31.933Z,26.65
2023-05-11T14:56:15.223Z,26.86
2023-05-11T14:58:52.473Z,27.23
2023-05-11T15:01:28.145Z,27.60
2023-05-11T15:04:02.370Z,28.06
2023-05-11T15:06:39.367Z,28.06
2023-05-11T15:09:13.063Z,27.84
2023-05-11T15:11:49.217Z,27.56
2023-05-11T15:14:23.012Z,27.27
2023-05-11T15:17:00.582Z,27.41
2023-05-11T15:19:36.344Z,27.60
2023-05-11T15:22:10.663Z,27.43
2023-05-11T15:24:49.201Z,26.84
2023-05-11T15:30:33.475Z,25.82
2023-05-11T15:33:06.833Z,25.73
2023-05-11T15:35:41.804Z,25.50
2023-05-11T15:38:14.943Z,25.56
2023-05-11T15:40:49.252Z,25.63
2023-05-11T15:43:22.309Z,26.09
2023-05-11T15:45:55.844Z,26.29
2023-05-11T15:48:29.077Z,25.78
2023-05-11T15:51:03.280Z,24.82
2023-05-11T15:53:37.585Z,23.25
2023-05-11T15:56:11.541Z,22.43
2023-05-11T15:58:46.186Z,21.91
2023-05-11T16:01:19.596Z,21.35
2023-05-11T16:03:53.024Z,21.10
2023-05-11T16:06:27.743Z,21.12
2023-05-11T16:09:01.316Z,20.96
2023-05-11T16:11:34.590Z,20.94
2023-05-11T16:14:10.044Z,20.89
2023-05-11T16:16:43.541Z,21.03
2023-05-11T16:19:19.435Z,21.07
2023-05-11T16:21:52.963Z,21.09
2023-05-11T16:24:45.101Z,21.05
2023-05-11T16:27:18.530Z,20.95
2023-05-11T16:29:52.436Z,20.88
2023-05-11T16:32:27.190Z,20.89
2023-05-11T16:35:02.971Z,20.71
2023-05-11T16:37:36.723Z,20.44
2023-05-11T16:40:12.988Z,20.24
2023-05-11T16:42:50.435Z,20.16
2023-05-11T16:45:33.884Z,20.16
2023-05-11T16:48:09.262Z,20.22
2023-05-11T16:50:44.897Z,20.25
2023-05-11T16:53:19.913Z,20.26
2023-05-11T16:55:53.732Z,20.20
2023-05-11T16:58:30.228Z,20.10
2023-05-11T17:01:03.291Z,19.94
2023-05-11T17:03:36.717Z,19.78
2023-05-11T17:06:14.186Z,19.61
2023-05-11T17:08:49.268Z,19.37
2023-05-11T17:11:23.788Z,19.26
2023-05-11T17:13:57.127Z,19.24
2023-05-11T17:16:30.424Z,19.12
2023-05-11T17:19:04.102Z,18.73
2023-05-11T17:21:39.974Z,18.01
2023-05-11T17:24:13.442Z,17.54
2023-05-11T17:26:48.551Z,17.20
2023-05-11T17:29:26.528Z,17.02
2023-05-11T17:31:59.892Z,16.95
2023-05-11T17:34:34.039Z,16.85
2023-05-11T17:37:17.395Z,16.75
2023-05-11T17:39:49.281Z,16.64
2023-05-11T17:42:25.333Z,16.51
2023-05-11T17:44:58.751Z,16.39
2023-05-11T17:47:39.968Z,16.26
2023-05-11T17:50:13.982Z,16.19
2023-05-11T17:52:50.670Z,16.19
2023-05-11T17:55:23.310Z,16.32
2023-05-11T17:57:56.737Z,16.51
2023-05-11T18:00:30.557Z,16.66
2023-05-11T18:03:06.946Z,16.83
2023-05-11T18:05:48.722Z,17.00
2023-05-11T18:08:15.302Z,17.11
2023-05-11T18:10:51.903Z,17.19
2023-05-11T18:13:26.504Z,17.22
2023-05-11T18:18:53.059Z,17.34
2023-05-11T18:21:31.782Z,17.25
2023-05-11T18:28:16.465Z,16.73
2023-05-11T18:30:51.627Z,16.74
2023-05-11T18:33:26.780Z,16.61
2023-05-11T18:53:03.349Z,16.35
2023-05-11T18:55:51.882Z,16.17
2023-05-11T19:09:02.461Z,15.92
2023-05-11T19:12:26.728Z,15.69
2023-05-11T19:18:23.091Z,15.75
2023-05-11T19:20:57.561Z,15.67
2023-05-11T19:23:32.104Z,15.68
2023-05-11T19:26:06.151Z,15.68
2023-05-11T19:28:41.280Z,15.69
2023-05-11T19:31:17.451Z,15.67
2023-05-11T19:33:52.632Z,15.64
2023-05-11T19:36:29.521Z,15.62
2023-05-11T19:39:04.648Z,15.57
2023-05-11T19:41:41.837Z,15.53
2023-05-11T19:44:16.720Z,15.49
2023-05-11T19:47:02.420Z,15.45
2023-05-11T19:49:40.439Z,15.37
2023-05-11T19:52:19.998Z,15.23
2023-05-11T19:54:56.183Z,15.08
2023-05-11T19:57:33.285Z,14.96
2023-05-11T20:03:28.850Z,14.91
2023-05-11T20:06:46.932Z,14.94
2023-05-11T20:09:48.128Z,15.01
2023-05-11T20:12:41.152Z,15.10
2023-05-11T20:15:17.262Z,15.09
2023-05-11T20:17:54.084Z,15.18
2023-05-11T20:20:49.411Z,15.29
2023-05-11T20:23:26.071Z,15.41
2023-05-11T20:26:03.221Z,15.42
2023-05-11T20:28:37.215Z,15.40
2023-05-11T20:31:15.556Z,15.39
2023-05-11T20:36:34.364Z,15.46
2023-05-11T20:39:11.327Z,15.52
2023-05-11T20:41:54.942Z,15.57
2023-05-11T20:44:34.275Z,15.59
2023-05-11T20:47:16.458Z,15.55
2023-05-11T20:49:50.247Z,15.43
2023-05-11T20:52:25.905Z,15.28
2023-05-11T20:54:59.530Z,15.03
2023-05-11T20:57:48.103Z,14.80
2023-05-11T21:03:50.664Z,14.52
2023-05-11T21:06:25.236Z,14.30
2023-05-11T21:08:58.601Z,14.20
2023-05-11T21:11:32.137Z,14.11
2023-05-11T21:14:05.880Z,13.94
2023-05-11T21:16:39.361Z,13.95
2023-05-11T21:19:16.993Z,13.91
2023-05-11T21:21:50.595Z,13.82
2023-05-11T21:24:25.037Z,13.77
2023-05-11T21:27:03.295Z,13.71
2023-05-11T21:29:39.504Z,13.67
2023-05-11T21:32:13.232Z,13.62
2023-05-11T21:34:46.883Z,13.60
2023-05-11T21:37:21.439Z,13.58
2023-05-11T21:39:55.346Z,13.58
2023-05-11T21:42:31.081Z,13.57
2023-05-11T21:45:05.100Z,13.56
2023-05-11T21:47:38.313Z,13.53
2023-05-11T21:50:16.224Z,13.51
2023-05-11T21:52:49.214Z,13.50
2023-05-11T21:55:35.039Z,13.48
2023-05-11T21:58:18.914Z,13.06
2023-05-11T22:00:52.420Z,13.37
2023-05-11T22:03:27.807Z,13.31
2023-05-11T22:06:01.653Z,13.25
2023-05-11T22:08:39.309Z,13.20
2023-05-11T22:11:12.606Z,13.16
2023-05-11T22:13:46.431Z,13.15
2023-05-11T22:16:20.106Z,13.11
2023-05-11T22:18:53.730Z,13.08
2023-05-11T22:21:29.715Z,13.05
2023-05-11T22:24:04.416Z,13.03
2023-05-11T22:26:43.666Z,13.01
2023-05-11T22:29:22.928Z,13.03
2023-05-11T22:31:57.628Z,13.01
2023-05-11T22:34:31.230Z,13.00
2023-05-11T22:37:05.428Z,12.99
2023-05-11T22:39:40.196Z,12.96
2023-05-11T22:42:16.417Z,12.91
2023-05-11T22:44:49.980Z,12.86
2023-05-11T22:47:23.817Z,12.80
2023-05-11T22:50:01.890Z,12.75
2023-05-11T22:52:37.850Z,12.70
2023-05-11T22:55:12.569Z,12.64
2023-05-11T22:57:45.954Z,12.56
2023-05-11T23:00:21.512Z,12.50
2023-05-11T23:02:55.336Z,12.43
2023-05-11T23:05:28.906Z,12.37
2023-05-11T23:08:04.590Z,12.31
2023-05-11T23:10:38.402Z,12.26
2023-05-11T23:13:12.980Z,12.20
2023-05-11T23:15:46.878Z,12.13
2023-05-11T23:22:21.497Z,12.06
2023-05-11T23:24:56.538Z,11.97
2023-05-11T23:27:29.937Z,11.92
2023-05-11T23:30:05.195Z,11.87
2023-05-11T23:32:39.130Z,11.82
2023-05-11T23:35:13.089Z,11.78
2023-05-11T23:37:46.498Z,11.73
2023-05-11T23:40:19.979Z,11.67
2023-05-11T23:42:53.514Z,11.63
2023-05-11T23:45:37.520Z,11.61
2023-05-11T23:49:04.576Z,11.59
2023-05-11T23:55:21.320Z,11.54
2023-05-11T23:58:01.169Z,11.48
